sensor_id;sensor_type;location;lat;lon;timestamp;temperature;humidity
68051;DHT22;54839;51.364;7.246;2023-09-19T00:01:12;15.30;99.90
68051;DHT22;54839;51.364;7.246;2023-09-19T00:03:40;15.20;99.90
68051;DHT22;54839;51.364;7.246;2023-09-19T00:06:07;15.20;99.90
68051;DHT22;54839;51.364;7.246;2023-09-19T00:08:34;15.00;99.90
68051;DHT22;54839;51.364;7.246;2023-09-19T00:11:00;15.20;99.90
68051;DHT22;54839;51.364;7.246;2023-09-19T00:13:32;15.10;99.90
68051;DHT22;54839;51.364;7.246;2023-09-19T00:15:57;15.00;99.90
68051;DHT22;54839;51.364;7.246;2023-09-19T00:18:25;15.00;99.90
68051;DHT22;54839;51.364;7.246;2023-09-19T00:20:57;15.00;99.90
68051;DHT22;54839;51.364;7.246;2023-09-19T00:23:22;15.00;99.90
68051;DHT22;54839;51.364;7.246;2023-09-19T00:25:50;14.90;99.90
68051;DHT22;54839;51.364;7.246;2023-09-19T00:28:17;14.80;99.90
68051;DHT22;54839;51.364;7.246;2023-09-19T00:30:44;14.80;99.90
68051;DHT22;54839;51.364;7.246;2023-09-19T00:33:11;14.80;99.90
68051;DHT22;54839;51.364;7.246;2023-09-19T00:35:50;14.80;99.90
68051;DHT22;54839;51.364;7.246;2023-09-19T00:38:17;14.80;99.90
68051;DHT22;54839;51.364;7.246;2023-09-19T00:40:46;14.70;99.90
68051;DHT22;54839;51.364;7.246;2023-09-19T00:43:11;14.70;99.90
68051;DHT22;54839;51.364;7.246;2023-09-19T00:45:37;14.70;99.90
68051;DHT22;54839;51.364;7.246;2023-09-19T00:48:07;14.70;99.90
68051;DHT22;54839;51.364;7.246;2023-09-19T00:50:35;14.60;99.90
68051;DHT22;54839;51.364;7.246;2023-09-19T00:53:01;14.50;99.90
68051;DHT22;54839;51.364;7.246;2023-09-19T00:55:34;14.60;99.90
68051;DHT22;54839;51.364;7.246;2023-09-19T00:58:00;14.60;99.90
68051;DHT22;54839;51.364;7.246;2023-09-19T01:00:26;14.70;99.90
68051;DHT22;54839;51.364;7.246;2023-09-19T01:02:51;14.60;99.90
68051;DHT22;54839;51.364;7.246;2023-09-19T01:05:17;14.50;99.90
68051;DHT22;54839;51.364;7.246;2023-09-19T01:07:43;14.50;99.90
68051;DHT22;54839;51.364;7.246;2023-09-19T01:10:12;14.50;99.90
68051;DHT22;54839;51.364;7.246;2023-09-19T01:27:45;14.50;99.90
68051;DHT22;54839;51.364;7.246;2023-09-19T01:30:18;14.40;99.90
68051;DHT22;54839;51.364;7.246;2023-09-19T01:32:50;14.50;99.90
68051;DHT22;54839;51.364;7.246;2023-09-19T01:35:18;14.50;99.90
68051;DHT22;54839;51.364;7.246;2023-09-19T01:37:44;14.50;99.90
68051;DHT22;54839;51.364;7.246;2023-09-19T01:40:13;14.40;99.90
68051;DHT22;54839;51.364;7.246;2023-09-19T01:43:09;14.40;99.90
68051;DHT22;54839;51.364;7.246;2023-09-19T01:45:50;14.50;99.90
68051;DHT22;54839;51.364;7.246;2023-09-19T01:48:43;14.40;99.90
68051;DHT22;54839;51.364;7.246;2023-09-19T01:51:18;14.40;99.90
68051;DHT22;54839;51.364;7.246;2023-09-19T01:56:50;14.30;99.90
68051;DHT22;54839;51.364;7.246;2023-09-19T01:59:17;14.30;99.90
68051;DHT22;54839;51.364;7.246;2023-09-19T02:01:48;14.30;99.90
68051;DHT22;54839;51.364;7.246;2023-09-19T02:04:15;14.30;99.90
68051;DHT22;54839;51.364;7.246;2023-09-19T02:06:41;14.30;99.90
68051;DHT22;54839;51.364;7.246;2023-09-19T02:09:07;14.40;99.90
68051;DHT22;54839;51.364;7.246;2023-09-19T02:11:34;14.30;99.90
68051;DHT22;54839;51.364;7.246;2023-09-19T02:14:00;14.20;99.90
68051;DHT22;54839;51.364;7.246;2023-09-19T02:16:26;14.30;99.90
68051;DHT22;54839;51.364;7.246;2023-09-19T02:18:52;14.30;99.90
68051;DHT22;54839;51.364;7.246;2023-09-19T02:21:18;14.30;99.90
68051;DHT22;54839;51.364;7.246;2023-09-19T02:23:44;14.30;99.90
68051;DHT22;54839;51.364;7.246;2023-09-19T02:26:10;14.30;99.90
68051;DHT22;54839;51.364;7.246;2023-09-19T02:28:37;14.30;99.90
68051;DHT22;54839;51.364;7.246;2023-09-19T02:31:03;14.30;99.90
68051;DHT22;54839;51.364;7.246;2023-09-19T02:33:31;14.20;99.90
68051;DHT22;54839;51.364;7.246;2023-09-19T02:35:58;14.30;99.90
68051;DHT22;54839;51.364;7.246;2023-09-19T02:38:24;14.20;99.90
68051;DHT22;54839;51.364;7.246;2023-09-19T02:40:53;14.20;99.90
68051;DHT22;54839;51.364;7.246;2023-09-19T02:43:20;14.20;99.90
68051;DHT22;54839;51.364;7.246;2023-09-19T02:45:46;14.20;99.90
68051;DHT22;54839;51.364;7.246;2023-09-19T02:48:12;14.30;99.90
68051;DHT22;54839;51.364;7.246;2023-09-19T02:50:38;14.20;99.90
68051;DHT22;54839;51.364;7.246;2023-09-19T02:53:05;14.10;99.90
68051;DHT22;54839;51.364;7.246;2023-09-19T02:55:32;14.20;99.90
68051;DHT22;54839;51.364;7.246;2023-09-19T02:57:57;14.10;99.90
68051;DHT22;54839;51.364;7.246;2023-09-19T03:00:23;14.00;99.90
68051;DHT22;54839;51.364;7.246;2023-09-19T03:02:55;14.10;99.90
68051;DHT22;54839;51.364;7.246;2023-09-19T03:05:22;14.00;99.90
68051;DHT22;54839;51.364;7.246;2023-09-19T03:07:49;14.00;99.90
68051;DHT22;54839;51.364;7.246;2023-09-19T03:10:19;14.00;99.90
68051;DHT22;54839;51.364;7.246;2023-09-19T03:12:49;14.00;99.90
68051;DHT22;54839;51.364;7.246;2023-09-19T03:15:15;14.10;99.90
68051;DHT22;54839;51.364;7.246;2023-09-19T03:17:47;14.00;99.90
68051;DHT22;54839;51.364;7.246;2023-09-19T03:20:14;14.10;99.90
68051;DHT22;54839;51.364;7.246;2023-09-19T03:22:43;14.00;99.90
68051;DHT22;54839;51.364;7.246;2023-09-19T03:25:08;14.10;99.90
68051;DHT22;54839;51.364;7.246;2023-09-19T03:27:35;13.90;99.90
68051;DHT22;54839;51.364;7.246;2023-09-19T03:30:01;13.90;99.90
68051;DHT22;54839;51.364;7.246;2023-09-19T03:32:30;14.00;99.90
68051;DHT22;54839;51.364;7.246;2023-09-19T03:34:56;13.90;99.90
68051;DHT22;54839;51.364;7.246;2023-09-19T03:37:22;13.90;99.90
68051;DHT22;54839;51.364;7.246;2023-09-19T03:39:47;13.90;99.90
68051;DHT22;54839;51.364;7.246;2023-09-19T03:42:13;14.00;99.90
68051;DHT22;54839;51.364;7.246;2023-09-19T03:44:38;13.90;99.90
68051;DHT22;54839;51.364;7.246;2023-09-19T03:47:04;13.80;99.90
68051;DHT22;54839;51.364;7.246;2023-09-19T03:49:30;13.70;99.90
68051;DHT22;54839;51.364;7.246;2023-09-19T03:51:56;13.80;99.90
68051;DHT22;54839;51.364;7.246;2023-09-19T03:54:22;13.70;99.90
68051;DHT22;54839;51.364;7.246;2023-09-19T03:56:47;13.70;99.90
68051;DHT22;54839;51.364;7.246;2023-09-19T03:59:13;13.80;99.90
68051;DHT22;54839;51.364;7.246;2023-09-19T04:01:39;13.70;99.90
68051;DHT22;54839;51.364;7.246;2023-09-19T04:04:06;13.70;99.90
68051;DHT22;54839;51.364;7.246;2023-09-19T04:06:35;13.60;99.90
68051;DHT22;54839;51.364;7.246;2023-09-19T04:09:01;13.60;99.90
68051;DHT22;54839;51.364;7.246;2023-09-19T04:11:27;13.60;99.90
68051;DHT22;54839;51.364;7.246;2023-09-19T04:13:52;13.80;99.90
68051;DHT22;54839;51.364;7.246;2023-09-19T04:16:19;13.60;99.90
68051;DHT22;54839;51.364;7.246;2023-09-19T04:18:45;13.60;99.90
68051;DHT22;54839;51.364;7.246;2023-09-19T04:21:10;13.60;99.90
68051;DHT22;54839;51.364;7.246;2023-09-19T04:23:36;13.70;99.90
68051;DHT22;54839;51.364;7.246;2023-09-19T04:26:01;13.50;99.90
68051;DHT22;54839;51.364;7.246;2023-09-19T04:28:29;13.50;99.90
68051;DHT22;54839;51.364;7.246;2023-09-19T04:30:55;13.50;99.90
68051;DHT22;54839;51.364;7.246;2023-09-19T04:33:20;13.70;99.90
68051;DHT22;54839;51.364;7.246;2023-09-19T04:35:49;13.60;99.90
68051;DHT22;54839;51.364;7.246;2023-09-19T04:38:15;13.50;99.90
68051;DHT22;54839;51.364;7.246;2023-09-19T04:40:41;13.60;99.90
68051;DHT22;54839;51.364;7.246;2023-09-19T04:43:06;13.50;99.90
68051;DHT22;54839;51.364;7.246;2023-09-19T04:45:32;13.50;99.90
68051;DHT22;54839;51.364;7.246;2023-09-19T04:47:58;13.40;99.90
68051;DHT22;54839;51.364;7.246;2023-09-19T04:50:24;13.50;99.90
68051;DHT22;54839;51.364;7.246;2023-09-19T04:52:51;13.50;99.90
68051;DHT22;54839;51.364;7.246;2023-09-19T04:55:18;13.50;99.90
68051;DHT22;54839;51.364;7.246;2023-09-19T04:57:48;13.50;99.90
68051;DHT22;54839;51.364;7.246;2023-09-19T05:00:16;13.50;99.90
68051;DHT22;54839;51.364;7.246;2023-09-19T05:02:43;13.50;99.90
68051;DHT22;54839;51.364;7.246;2023-09-19T05:05:09;13.50;99.90
68051;DHT22;54839;51.364;7.246;2023-09-19T05:07:42;13.40;99.90
68051;DHT22;54839;51.364;7.246;2023-09-19T05:10:09;13.50;99.90
68051;DHT22;54839;51.364;7.246;2023-09-19T05:12:36;13.40;99.90
68051;DHT22;54839;51.364;7.246;2023-09-19T05:15:02;13.50;99.90
68051;DHT22;54839;51.364;7.246;2023-09-19T05:17:29;13.50;99.90
68051;DHT22;54839;51.364;7.246;2023-09-19T05:19:54;13.40;99.90
68051;DHT22;54839;51.364;7.246;2023-09-19T05:22:20;13.40;99.90
68051;DHT22;54839;51.364;7.246;2023-09-19T05:24:45;13.50;99.90
68051;DHT22;54839;51.364;7.246;2023-09-19T05:27:17;13.60;99.90
68051;DHT22;54839;51.364;7.246;2023-09-19T05:29:45;13.40;99.90
68051;DHT22;54839;51.364;7.246;2023-09-19T05:32:11;13.50;99.90
68051;DHT22;54839;51.364;7.246;2023-09-19T05:34:37;13.50;99.90
68051;DHT22;54839;51.364;7.246;2023-09-19T05:37:04;13.50;99.90
68051;DHT22;54839;51.364;7.246;2023-09-19T05:39:33;13.40;99.90
68051;DHT22;54839;51.364;7.246;2023-09-19T05:41:59;13.40;99.90
68051;DHT22;54839;51.364;7.246;2023-09-19T05:44:25;13.40;99.90
68051;DHT22;54839;51.364;7.246;2023-09-19T05:46:51;13.50;99.90
68051;DHT22;54839;51.364;7.246;2023-09-19T05:49:17;13.60;99.90
68051;DHT22;54839;51.364;7.246;2023-09-19T05:51:42;13.70;99.90
68051;DHT22;54839;51.364;7.246;2023-09-19T05:54:08;13.60;99.90
68051;DHT22;54839;51.364;7.246;2023-09-19T05:56:34;13.70;99.90
68051;DHT22;54839;51.364;7.246;2023-09-19T05:59:00;13.80;99.90
68051;DHT22;54839;51.364;7.246;2023-09-19T06:01:25;13.90;99.90
68051;DHT22;54839;51.364;7.246;2023-09-19T06:03:52;14.00;99.90
68051;DHT22;54839;51.364;7.246;2023-09-19T06:06:18;13.90;99.90
68051;DHT22;54839;51.364;7.246;2023-09-19T06:08:44;14.00;99.90
68051;DHT22;54839;51.364;7.246;2023-09-19T06:11:10;14.10;99.90
68051;DHT22;54839;51.364;7.246;2023-09-19T06:13:36;14.10;99.90
68051;DHT22;54839;51.364;7.246;2023-09-19T06:16:04;14.10;99.90
68051;DHT22;54839;51.364;7.246;2023-09-19T06:18:33;14.10;99.90
68051;DHT22;54839;51.364;7.246;2023-09-19T06:20:59;14.20;99.90
68051;DHT22;54839;51.364;7.246;2023-09-19T06:23:25;14.20;99.90
68051;DHT22;54839;51.364;7.246;2023-09-19T06:25:52;14.10;99.90
68051;DHT22;54839;51.364;7.246;2023-09-19T06:28:19;14.20;99.90
68051;DHT22;54839;51.364;7.246;2023-09-19T06:30:49;14.30;99.90
68051;DHT22;54839;51.364;7.246;2023-09-19T06:33:14;14.30;99.90
68051;DHT22;54839;51.364;7.246;2023-09-19T06:35:42;14.30;99.90
68051;DHT22;54839;51.364;7.246;2023-09-19T06:38:12;14.30;99.90
68051;DHT22;54839;51.364;7.246;2023-09-19T06:40:38;14.40;99.90
68051;DHT22;54839;51.364;7.246;2023-09-19T06:43:05;14.30;99.90
68051;DHT22;54839;51.364;7.246;2023-09-19T06:45:30;14.40;99.90
68051;DHT22;54839;51.364;7.246;2023-09-19T06:47:57;14.30;99.90
68051;DHT22;54839;51.364;7.246;2023-09-19T06:50:23;14.40;99.90
68051;DHT22;54839;51.364;7.246;2023-09-19T06:52:51;14.40;99.90
68051;DHT22;54839;51.364;7.246;2023-09-19T06:55:18;14.40;99.90
68051;DHT22;54839;51.364;7.246;2023-09-19T06:57:45;14.50;99.90
68051;DHT22;54839;51.364;7.246;2023-09-19T07:00:12;14.50;99.90
68051;DHT22;54839;51.364;7.246;2023-09-19T07:03:06;14.50;99.90
68051;DHT22;54839;51.364;7.246;2023-09-19T07:05:39;14.50;99.90
68051;DHT22;54839;51.364;7.246;2023-09-19T07:08:09;14.50;99.90
68051;DHT22;54839;51.364;7.246;2023-09-19T07:10:37;14.60;99.90
68051;DHT22;54839;51.364;7.246;2023-09-19T07:13:06;14.60;99.90
68051;DHT22;54839;51.364;7.246;2023-09-19T07:15:37;14.70;99.90
68051;DHT22;54839;51.364;7.246;2023-09-19T07:18:06;14.60;99.90
68051;DHT22;54839;51.364;7.246;2023-09-19T07:20:32;14.70;99.90
68051;DHT22;54839;51.364;7.246;2023-09-19T07:23:00;14.60;99.90
68051;DHT22;54839;51.364;7.246;2023-09-19T07:25:27;14.80;99.90
68051;DHT22;54839;51.364;7.246;2023-09-19T07:27:55;14.90;99.90
68051;DHT22;54839;51.364;7.246;2023-09-19T07:30:21;14.90;99.90
68051;DHT22;54839;51.364;7.246;2023-09-19T07:32:47;15.00;99.90
68051;DHT22;54839;51.364;7.246;2023-09-19T07:35:12;14.90;99.90
68051;DHT22;54839;51.364;7.246;2023-09-19T07:37:38;14.90;99.90
68051;DHT22;54839;51.364;7.246;2023-09-19T07:40:04;15.00;99.90
68051;DHT22;54839;51.364;7.246;2023-09-19T07:42:35;15.20;99.90
68051;DHT22;54839;51.364;7.246;2023-09-19T07:45:02;15.00;99.90
68051;DHT22;54839;51.364;7.246;2023-09-19T07:47:29;15.00;99.90
68051;DHT22;54839;51.364;7.246;2023-09-19T07:49:55;15.10;99.90
68051;DHT22;54839;51.364;7.246;2023-09-19T07:52:21;15.20;99.90
68051;DHT22;54839;51.364;7.246;2023-09-19T07:54:48;15.20;99.90
68051;DHT22;54839;51.364;7.246;2023-09-19T07:57:16;15.20;99.90
68051;DHT22;54839;51.364;7.246;2023-09-19T07:59:42;15.20;99.90
68051;DHT22;54839;51.364;7.246;2023-09-19T08:02:08;15.20;99.90
68051;DHT22;54839;51.364;7.246;2023-09-19T08:04:42;15.40;99.90
68051;DHT22;54839;51.364;7.246;2023-09-19T08:07:08;15.30;99.90
68051;DHT22;54839;51.364;7.246;2023-09-19T08:09:34;15.40;99.90
68051;DHT22;54839;51.364;7.246;2023-09-19T08:11:59;15.40;99.90
68051;DHT22;54839;51.364;7.246;2023-09-19T08:14:28;15.60;99.90
68051;DHT22;54839;51.364;7.246;2023-09-19T08:16:57;15.70;99.90
68051;DHT22;54839;51.364;7.246;2023-09-19T08:19:26;15.70;99.90
68051;DHT22;54839;51.364;7.246;2023-09-19T08:21:57;15.80;99.90
68051;DHT22;54839;51.364;7.246;2023-09-19T08:24:30;15.70;99.90
68051;DHT22;54839;51.364;7.246;2023-09-19T08:26:57;15.70;99.90
68051;DHT22;54839;51.364;7.246;2023-09-19T08:29:24;15.70;99.90
68051;DHT22;54839;51.364;7.246;2023-09-19T08:31:54;15.80;99.90
68051;DHT22;54839;51.364;7.246;2023-09-19T08:34:21;15.60;99.90
68051;DHT22;54839;51.364;7.246;2023-09-19T08:36:47;15.80;99.90
68051;DHT22;54839;51.364;7.246;2023-09-19T08:39:13;15.80;99.90
68051;DHT22;54839;51.364;7.246;2023-09-19T08:41:39;15.80;99.90
68051;DHT22;54839;51.364;7.246;2023-09-19T08:44:05;15.70;99.90
68051;DHT22;54839;51.364;7.246;2023-09-19T08:46:34;15.70;99.90
68051;DHT22;54839;51.364;7.246;2023-09-19T08:49:04;15.70;99.90
68051;DHT22;54839;51.364;7.246;2023-09-19T08:51:43;15.70;99.90
68051;DHT22;54839;51.364;7.246;2023-09-19T08:54:30;15.80;99.90
68051;DHT22;54839;51.364;7.246;2023-09-19T08:57:00;16.10;99.90
68051;DHT22;54839;51.364;7.246;2023-09-19T08:59:28;16.10;99.90
68051;DHT22;54839;51.364;7.246;2023-09-19T09:01:55;15.90;99.90
68051;DHT22;54839;51.364;7.246;2023-09-19T09:04:22;15.90;99.90
68051;DHT22;54839;51.364;7.246;2023-09-19T09:06:50;16.20;99.90
68051;DHT22;54839;51.364;7.246;2023-09-19T09:09:19;16.20;99.90
68051;DHT22;54839;51.364;7.246;2023-09-19T09:11:45;16.40;99.90
68051;DHT22;54839;51.364;7.246;2023-09-19T09:14:13;16.50;99.90
68051;DHT22;54839;51.364;7.246;2023-09-19T09:16:39;16.40;99.90
68051;DHT22;54839;51.364;7.246;2023-09-19T09:19:05;16.40;99.90
68051;DHT22;54839;51.364;7.246;2023-09-19T09:21:31;16.60;99.90
68051;DHT22;54839;51.364;7.246;2023-09-19T09:24:27;16.50;99.90
68051;DHT22;54839;51.364;7.246;2023-09-19T09:26:59;16.50;99.90
68051;DHT22;54839;51.364;7.246;2023-09-19T09:29:42;16.60;99.90
68051;DHT22;54839;51.364;7.246;2023-09-19T09:32:25;16.60;99.90
68051;DHT22;54839;51.364;7.246;2023-09-19T09:34:56;16.80;99.90
68051;DHT22;54839;51.364;7.246;2023-09-19T09:37:23;16.90;99.90
68051;DHT22;54839;51.364;7.246;2023-09-19T09:39:54;16.80;99.90
68051;DHT22;54839;51.364;7.246;2023-09-19T09:42:48;16.90;99.90
68051;DHT22;54839;51.364;7.246;2023-09-19T09:45:18;16.80;99.90
68051;DHT22;54839;51.364;7.246;2023-09-19T09:47:54;16.90;99.90
68051;DHT22;54839;51.364;7.246;2023-09-19T09:50:30;17.00;99.90
68051;DHT22;54839;51.364;7.246;2023-09-19T09:53:27;17.00;99.90
68051;DHT22;54839;51.364;7.246;2023-09-19T09:56:08;17.00;99.90
68051;DHT22;54839;51.364;7.246;2023-09-19T09:58:36;17.00;99.90
68051;DHT22;54839;51.364;7.246;2023-09-19T10:01:05;17.00;99.90
68051;DHT22;54839;51.364;7.246;2023-09-19T10:03:41;17.00;99.90
68051;DHT22;54839;51.364;7.246;2023-09-19T10:06:11;17.10;99.90
68051;DHT22;54839;51.364;7.246;2023-09-19T10:09:05;17.20;99.90
68051;DHT22;54839;51.364;7.246;2023-09-19T10:11:44;17.10;99.90
68051;DHT22;54839;51.364;7.246;2023-09-19T10:14:16;16.80;99.90
68051;DHT22;54839;51.364;7.246;2023-09-19T10:16:48;16.80;99.90
68051;DHT22;54839;51.364;7.246;2023-09-19T10:19:37;16.90;99.90
68051;DHT22;54839;51.364;7.246;2023-09-19T10:22:05;17.00;99.90
68051;DHT22;54839;51.364;7.246;2023-09-19T10:24:35;17.00;99.90
68051;DHT22;54839;51.364;7.246;2023-09-19T10:27:04;17.00;99.90
68051;DHT22;54839;51.364;7.246;2023-09-19T10:29:34;17.40;99.90
68051;DHT22;54839;51.364;7.246;2023-09-19T10:32:03;17.40;99.90
68051;DHT22;54839;51.364;7.246;2023-09-19T10:34:35;17.20;99.90
68051;DHT22;54839;51.364;7.246;2023-09-19T10:37:02;17.30;99.90
68051;DHT22;54839;51.364;7.246;2023-09-19T10:39:32;17.30;99.90
68051;DHT22;54839;51.364;7.246;2023-09-19T10:42:02;17.50;99.90
68051;DHT22;54839;51.364;7.246;2023-09-19T10:44:32;17.50;99.90
68051;DHT22;54839;51.364;7.246;2023-09-19T10:46:58;17.40;99.90
68051;DHT22;54839;51.364;7.246;2023-09-19T10:49:25;17.40;99.90
68051;DHT22;54839;51.364;7.246;2023-09-19T10:51:56;17.60;99.90
68051;DHT22;54839;51.364;7.246;2023-09-19T10:54:27;17.60;99.90
68051;DHT22;54839;51.364;7.246;2023-09-19T10:56:54;17.60;99.90
68051;DHT22;54839;51.364;7.246;2023-09-19T10:59:24;17.60;99.90
68051;DHT22;54839;51.364;7.246;2023-09-19T11:01:55;17.60;99.90
68051;DHT22;54839;51.364;7.246;2023-09-19T11:04:34;17.80;99.90
68051;DHT22;54839;51.364;7.246;2023-09-19T11:07:09;18.10;99.90
68051;DHT22;54839;51.364;7.246;2023-09-19T11:09:49;18.20;99.90
68051;DHT22;54839;51.364;7.246;2023-09-19T11:15:01;18.20;99.90
68051;DHT22;54839;51.364;7.246;2023-09-19T11:17:37;18.30;99.90
68051;DHT22;54839;51.364;7.246;2023-09-19T11:30:33;18.50;99.90
68051;DHT22;54839;51.364;7.246;2023-09-19T11:33:19;18.70;99.90
68051;DHT22;54839;51.364;7.246;2023-09-19T11:36:11;18.60;99.90
68051;DHT22;54839;51.364;7.246;2023-09-19T11:43:51;18.60;99.90
68051;DHT22;54839;51.364;7.246;2023-09-19T11:46:18;18.50;99.90
68051;DHT22;54839;51.364;7.246;2023-09-19T11:48:51;18.50;99.90
68051;DHT22;54839;51.364;7.246;2023-09-19T11:51:22;18.70;99.90
68051;DHT22;54839;51.364;7.246;2023-09-19T11:53:52;18.50;99.90
68051;DHT22;54839;51.364;7.246;2023-09-19T11:56:20;18.80;99.90
68051;DHT22;54839;51.364;7.246;2023-09-19T11:58:49;18.90;99.90
68051;DHT22;54839;51.364;7.246;2023-09-19T12:01:42;18.80;99.90
68051;DHT22;54839;51.364;7.246;2023-09-19T12:04:16;18.80;99.90
68051;DHT22;54839;51.364;7.246;2023-09-19T12:06:43;18.80;99.90
68051;DHT22;54839;51.364;7.246;2023-09-19T12:09:22;19.00;99.90
68051;DHT22;54839;51.364;7.246;2023-09-19T12:11:48;19.10;99.90
68051;DHT22;54839;51.364;7.246;2023-09-19T12:14:24;19.30;99.90
68051;DHT22;54839;51.364;7.246;2023-09-19T12:16:54;19.40;99.90
68051;DHT22;54839;51.364;7.246;2023-09-19T12:19:21;19.30;99.90
68051;DHT22;54839;51.364;7.246;2023-09-19T12:22:01;19.20;99.90
68051;DHT22;54839;51.364;7.246;2023-09-19T12:24:32;19.20;99.90
68051;DHT22;54839;51.364;7.246;2023-09-19T12:27:02;19.20;99.90
68051;DHT22;54839;51.364;7.246;2023-09-19T12:29:30;19.30;99.90
68051;DHT22;54839;51.364;7.246;2023-09-19T12:31:58;19.20;99.90
68051;DHT22;54839;51.364;7.246;2023-09-19T12:34:25;19.00;99.90
68051;DHT22;54839;51.364;7.246;2023-09-19T12:37:23;19.10;99.90
68051;DHT22;54839;51.364;7.246;2023-09-19T12:40:08;19.30;99.90
68051;DHT22;54839;51.364;7.246;2023-09-19T12:42:46;19.40;99.90
68051;DHT22;54839;51.364;7.246;2023-09-19T12:45:13;19.60;99.90
68051;DHT22;54839;51.364;7.246;2023-09-19T12:47:40;20.90;99.90
68051;DHT22;54839;51.364;7.246;2023-09-19T12:50:26;21.70;99.90
68051;DHT22;54839;51.364;7.246;2023-09-19T12:52:55;22.20;99.90
68051;DHT22;54839;51.364;7.246;2023-09-19T12:55:31;22.80;99.90
68051;DHT22;54839;51.364;7.246;2023-09-19T12:58:14;22.40;99.90
68051;DHT22;54839;51.364;7.246;2023-09-19T13:00:44;23.30;99.90
68051;DHT22;54839;51.364;7.246;2023-09-19T13:03:18;24.30;99.90
68051;DHT22;54839;51.364;7.246;2023-09-19T13:05:53;24.00;99.90
68051;DHT22;54839;51.364;7.246;2023-09-19T13:08:21;23.70;99.90
68051;DHT22;54839;51.364;7.246;2023-09-19T13:11:07;23.90;99.90
68051;DHT22;54839;51.364;7.246;2023-09-19T13:13:36;23.80;99.90
68051;DHT22;54839;51.364;7.246;2023-09-19T13:16:03;25.00;99.90
68051;DHT22;54839;51.364;7.246;2023-09-19T13:18:29;25.40;99.90
68051;DHT22;54839;51.364;7.246;2023-09-19T13:21:09;24.40;99.90
68051;DHT22;54839;51.364;7.246;2023-09-19T13:23:42;24.00;99.90
68051;DHT22;54839;51.364;7.246;2023-09-19T13:26:09;24.50;99.90
68051;DHT22;54839;51.364;7.246;2023-09-19T13:28:37;23.30;99.80
68051;DHT22;54839;51.364;7.246;2023-09-19T13:31:02;23.60;99.90
68051;DHT22;54839;51.364;7.246;2023-09-19T13:33:28;24.00;99.90
68051;DHT22;54839;51.364;7.246;2023-09-19T13:35:53;24.30;99.90
68051;DHT22;54839;51.364;7.246;2023-09-19T13:38:20;23.00;99.90
68051;DHT22;54839;51.364;7.246;2023-09-19T13:40:47;24.00;99.90
68051;DHT22;54839;51.364;7.246;2023-09-19T13:43:13;23.80;99.90
68051;DHT22;54839;51.364;7.246;2023-09-19T13:45:39;24.60;99.90
68051;DHT22;54839;51.364;7.246;2023-09-19T13:48:07;25.80;97.90
68051;DHT22;54839;51.364;7.246;2023-09-19T13:50:34;25.50;98.00
68051;DHT22;54839;51.364;7.246;2023-09-19T13:53:02;24.50;98.40
68051;DHT22;54839;51.364;7.246;2023-09-19T13:55:28;24.90;98.80
68051;DHT22;54839;51.364;7.246;2023-09-19T13:57:53;25.10;98.60
68051;DHT22;54839;51.364;7.246;2023-09-19T14:00:21;24.40;98.20
68051;DHT22;54839;51.364;7.246;2023-09-19T14:02:48;24.30;98.00
68051;DHT22;54839;51.364;7.246;2023-09-19T14:05:14;23.20;99.50
68051;DHT22;54839;51.364;7.246;2023-09-19T14:07:42;22.40;99.90
68051;DHT22;54839;51.364;7.246;2023-09-19T14:10:09;22.40;99.90
68051;DHT22;54839;51.364;7.246;2023-09-19T14:12:39;22.00;99.90
68051;DHT22;54839;51.364;7.246;2023-09-19T14:15:09;22.20;99.90
68051;DHT22;54839;51.364;7.246;2023-09-19T14:17:35;21.10;99.90
68051;DHT22;54839;51.364;7.246;2023-09-19T14:20:01;20.90;99.90
68051;DHT22;54839;51.364;7.246;2023-09-19T14:22:27;20.80;99.90
68051;DHT22;54839;51.364;7.246;2023-09-19T14:24:52;20.50;99.90
68051;DHT22;54839;51.364;7.246;2023-09-19T14:27:18;20.70;99.90
68051;DHT22;54839;51.364;7.246;2023-09-19T14:29:44;20.70;99.90
68051;DHT22;54839;51.364;7.246;2023-09-19T14:32:10;20.30;99.90
68051;DHT22;54839;51.364;7.246;2023-09-19T14:34:36;20.50;99.90
68051;DHT22;54839;51.364;7.246;2023-09-19T14:37:04;21.00;99.90
68051;DHT22;54839;51.364;7.246;2023-09-19T14:39:32;21.30;99.90
68051;DHT22;54839;51.364;7.246;2023-09-19T14:41:57;20.90;99.90
68051;DHT22;54839;51.364;7.246;2023-09-19T14:44:23;20.50;99.90
68051;DHT22;54839;51.364;7.246;2023-09-19T14:46:49;20.80;99.90
68051;DHT22;54839;51.364;7.246;2023-09-19T14:49:14;20.40;99.90
68051;DHT22;54839;51.364;7.246;2023-09-19T14:51:42;20.30;99.90
68051;DHT22;54839;51.364;7.246;2023-09-19T14:54:13;20.40;99.90
68051;DHT22;54839;51.364;7.246;2023-09-19T14:56:42;20.60;99.90
68051;DHT22;54839;51.364;7.246;2023-09-19T14:59:07;21.00;99.90
68051;DHT22;54839;51.364;7.246;2023-09-19T15:01:33;20.80;99.90
68051;DHT22;54839;51.364;7.246;2023-09-19T15:03:58;20.60;99.90
68051;DHT22;54839;51.364;7.246;2023-09-19T15:06:26;20.50;99.90
68051;DHT22;54839;51.364;7.246;2023-09-19T15:08:51;20.70;99.90
68051;DHT22;54839;51.364;7.246;2023-09-19T15:11:17;20.10;99.90
68051;DHT22;54839;51.364;7.246;2023-09-19T15:13:44;19.90;99.90
68051;DHT22;54839;51.364;7.246;2023-09-19T15:16:10;19.80;99.90
68051;DHT22;54839;51.364;7.246;2023-09-19T15:18:37;19.60;99.90
68051;DHT22;54839;51.364;7.246;2023-09-19T15:21:04;19.80;99.90
68051;DHT22;54839;51.364;7.246;2023-09-19T15:23:31;19.60;99.90
68051;DHT22;54839;51.364;7.246;2023-09-19T15:25:57;19.60;99.90
68051;DHT22;54839;51.364;7.246;2023-09-19T15:28:23;19.60;99.90
68051;DHT22;54839;51.364;7.246;2023-09-19T15:30:49;19.50;99.90
68051;DHT22;54839;51.364;7.246;2023-09-19T15:33:15;19.70;99.90
68051;DHT22;54839;51.364;7.246;2023-09-19T15:35:41;19.50;99.90
68051;DHT22;54839;51.364;7.246;2023-09-19T15:38:07;19.40;99.90
68051;DHT22;54839;51.364;7.246;2023-09-19T15:40:33;19.30;99.90
68051;DHT22;54839;51.364;7.246;2023-09-19T15:42:59;19.30;99.90
68051;DHT22;54839;51.364;7.246;2023-09-19T15:45:25;19.40;99.90
68051;DHT22;54839;51.364;7.246;2023-09-19T15:47:51;19.30;99.90
68051;DHT22;54839;51.364;7.246;2023-09-19T15:50:16;19.20;99.90
68051;DHT22;54839;51.364;7.246;2023-09-19T15:52:42;19.30;99.90
68051;DHT22;54839;51.364;7.246;2023-09-19T15:55:08;19.30;99.90
68051;DHT22;54839;51.364;7.246;2023-09-19T15:57:37;19.30;99.90
68051;DHT22;54839;51.364;7.246;2023-09-19T16:00:04;19.40;99.90
68051;DHT22;54839;51.364;7.246;2023-09-19T16:02:38;19.50;99.90
68051;DHT22;54839;51.364;7.246;2023-09-19T16:05:03;19.50;99.90
68051;DHT22;54839;51.364;7.246;2023-09-19T16:07:31;19.60;99.90
68051;DHT22;54839;51.364;7.246;2023-09-19T16:09:57;19.70;99.90
68051;DHT22;54839;51.364;7.246;2023-09-19T16:12:24;19.70;99.90
68051;DHT22;54839;51.364;7.246;2023-09-19T16:14:50;19.30;99.90
68051;DHT22;54839;51.364;7.246;2023-09-19T16:17:15;19.10;99.90